KMFE Airport Information


Runway Information
Runway 13 Length 7120 ft width 150 ft
Elevation 107 ft Threshold 137 ft Heading 141
Runway 31 Length 7120 ft Width 150 ft
Elevation 102 ft Threshold ft Heading 321
Runway 18 Length 2638 ft width 60 ft
Elevation 104 ft Threshold ft Heading 189
Runway 36 Length 2638 ft Width 60 ft
Elevation 96 ft Threshold ft Heading 9
Airport Frequencies
Type A/D Name VALLEY APP Frequency 121 MHZ
Type ASOS Name ASOS Frequency 128.5 MHZ
Type ATIS Name ATIS Frequency 128.5 MHZ
Type CTAF Name CTAF Frequency 118.5 MHZ
Type GND Name GND Frequency 121.8 MHZ
Type RDO Name SAN ANGELO Frequency 122.2 MHZ
Type TWR Name TWR Frequency 118.5 MHZ
Type UNIC Name UNICOM Frequency 122.95 MHZ
Airport Navaids
Type NDB Name Missi Frequency 388 KHZ
Type VOR-DME Name Mc Allen Frequency 117200 KHZ
Airport Weather Information & NOTAM
ADDS - METARS form results

(1617 UTC 24 September 2022)
Data provider http://aviationweather.gov/metar/data/
 
METAR text: KMFE 241553Z 00000KT 10SM FEW023 29/23 A3001 RMK AO2 SLP161 T02940233
Conditions at: KMFE (MCALLEN , TX, US) observed 1553 UTC 24 September 2022
Temperature: 29.4°C (85°F)
Dewpoint: 23.3°C (74°F) [RH = 70%]
Pressure (altimeter): 30.01 inches Hg (1016.3 mb)
[Sea-level pressure: 1016.1 mb]
Winds: calm
Visibility: 10 or more miles (16+ km)
Ceiling: at least 12,000 feet AGL
Clouds: few clouds at 2300 feet AGL
Weather: no significant weather observed at this time

METAR text: KMFE 241528Z 13003KT 10SM SCT021 29/23 A3001 RMK AO2 T02890233
Conditions at: KMFE (MCALLEN , TX, US) observed 1528 UTC 24 September 2022
Temperature: 28.9°C (84°F)
Dewpoint: 23.3°C (74°F) [RH = 72%]
Pressure (altimeter): 30.01 inches Hg (1016.3 mb)
Winds: from the SE (130 degrees) at 3 MPH (3 knots; 1.5 m/s)
Visibility: 10 or more miles (16+ km)
Ceiling: at least 12,000 feet AGL
Clouds: scattered clouds at 2100 feet AGL
Weather: no significant weather observed at this time

METAR text: KMFE 241518Z 16005KT 10SM BKN022 29/23 A3001 RMK AO2 T02890233
Conditions at: KMFE (MCALLEN , TX, US) observed 1518 UTC 24 September 2022
Temperature: 28.9°C (84°F)
Dewpoint: 23.3°C (74°F) [RH = 72%]
Pressure (altimeter): 30.01 inches Hg (1016.3 mb)
Winds: from the SSE (160 degrees) at 6 MPH (5 knots; 2.6 m/s)
Visibility: 10 or more miles (16+ km)
Ceiling: 2200 feet AGL
Clouds: broken clouds at 2200 feet AGL
Weather: no significant weather observed at this time

Forecast for: KMFE (MCALLEN , TX, US)
Text: KMFE 241544Z 2416/2512 13003KT P6SM SCT021
Forecast period: 1600 UTC 24 September 2022 to 0200 UTC 25 September 2022
Forecast type: FROM: standard forecast or significant change
Winds: from the SE (130 degrees) at 3 MPH (3 knots; 1.5 m/s)
Visibility: 6 or more miles (10+ km)
Ceiling: at least 12,000 feet AGL
Clouds: scattered clouds at 2100 feet AGL
Weather: no significant weather forecast for this period
Text: FM250200 14005KT P6SM FEW025
Forecast period: 0200 to 1200 UTC 25 September 2022
Forecast type: FROM: standard forecast or significant change
Winds: from the SE (140 degrees) at 6 MPH (5 knots; 2.6 m/s)
Visibility: 6 or more miles (10+ km)
Ceiling: at least 12,000 feet AGL
Clouds: few clouds at 2500 feet AGL
Weather: no significant weather forecast for this period